Time;durP1;ratioP1;P1;durP2;ratioP2;P2;SDS_P1;SDS_P2;PMS_P1;PMS_P2;Temp;Humidity;BMP_temperature;BMP_pressure;BME280_temperature;BME280_humidity;BME280_pressure;Samples;Min_cycle;Max_cycle;Signal;HPM_P1;HPM_P2
2021/12/14 00:01:00;;;;;;;8.68;5.38;;;;;;;3.49;86.40;100098.81;5088635;28;20258;-54
2021/12/14 00:03:29;;;;;;;8.73;5.22;;;;;;;3.29;85.35;100085.78;5090976;28;20088;-54
2021/12/14 00:05:55;;;;;;;8.97;5.07;;;;;;;3.22;85.33;100095.22;5091839;28;20097;-54
2021/12/14 00:08:21;;;;;;;7.60;4.80;;;;;;;2.89;86.92;100104.50;5091495;28;20035;-54
2021/12/14 00:16:02;;;;;;;7.65;5.05;;;;;;;3.07;86.18;100107.22;5091595;28;20104;-54
2021/12/14 00:18:28;;;;;;;6.90;4.57;;;;;;;3.10;87.21;100109.53;5093015;28;20464;-54
2021/12/14 00:20:59;;;;;;;9.15;5.28;;;;;;;3.21;86.02;100108.50;5092702;28;20468;-53
2021/12/14 00:26:10;;;;;;;7.45;4.53;;;;;;;3.23;87.28;100110.00;5092609;28;20111;-54
2021/12/14 00:28:36;;;;;;;7.57;4.97;;;;;;;3.03;86.17;100113.75;5092587;28;20012;-54
2021/12/14 00:31:03;;;;;;;7.93;4.88;;;;;;;3.13;85.73;100119.78;5092648;28;20031;-53
2021/12/14 00:33:32;;;;;;;6.53;4.40;;;;;;;3.10;85.91;100118.28;5092236;28;20024;-54
2021/12/14 00:35:59;;;;;;;8.23;5.00;;;;;;;3.10;87.56;100122.69;5091765;28;20047;-54
2021/12/14 00:38:24;;;;;;;6.95;4.60;;;;;;;3.17;85.90;100118.50;5092065;28;20099;-54
2021/12/14 00:40:52;;;;;;;7.05;4.63;;;;;;;3.08;86.36;100129.88;5091910;28;20392;-55
2021/12/14 00:43:18;;;;;;;5.63;4.07;;;;;;;3.23;85.59;100130.25;5091742;28;20104;-54
2021/12/14 00:45:45;;;;;;;7.15;4.50;;;;;;;3.30;85.99;100136.56;5091617;28;20578;-54
2021/12/14 00:48:11;;;;;;;7.70;4.90;;;;;;;3.23;86.85;100135.50;5091797;28;20022;-55
2021/12/14 00:50:37;;;;;;;8.63;5.20;;;;;;;3.40;84.78;100134.72;5092392;28;20016;-55
2021/12/14 00:53:02;;;;;;;7.25;5.05;;;;;;;3.15;85.41;100140.66;5092408;28;20019;-54
2021/12/14 00:55:32;;;;;;;7.63;5.35;;;;;;;3.04;85.62;100139.03;5092264;28;20466;-53
2021/12/14 00:57:57;;;;;;;9.00;5.38;;;;;;;2.99;85.86;100131.59;5092537;28;20031;-54
2021/12/14 01:00:29;;;;;;;9.77;5.43;;;;;;;2.87;85.76;100135.38;5089595;28;20024;-53
2021/12/14 01:02:55;;;;;;;8.10;5.25;;;;;;;3.09;86.60;100136.81;5092012;28;20025;-54
2021/12/14 01:05:28;;;;;;;7.45;4.88;;;;;;;3.15;85.06;100140.66;5091631;28;20101;-53
2021/12/14 01:07:54;;;;;;;9.45;5.40;;;;;;;3.14;84.22;100129.31;5091859;28;20019;-54
2021/12/14 01:10:29;;;;;;;8.15;5.15;;;;;;;3.17;84.44;100138.72;5092236;28;20153;-54
2021/12/14 01:13:00;;;;;;;6.38;4.38;;;;;;;2.95;84.86;100143.34;5090822;28;20123;-54
2021/12/14 01:15:42;;;;;;;6.55;4.18;;;;;;;2.87;84.69;100143.25;5089873;28;20018;-55
2021/12/14 01:18:27;;;;;;;7.15;4.07;;;;;;;3.06;85.22;100139.72;5090146;28;20016;-54
2021/12/14 01:20:59;;;;;;;6.70;4.28;;;;;;;2.98;85.08;100148.34;5090141;28;20032;-53
2021/12/14 01:23:34;;;;;;;7.57;4.68;;;;;;;3.03;87.10;100150.56;5089478;28;20455;-54
2021/12/14 01:26:05;;;;;;;6.43;4.03;;;;;;;2.79;85.73;100140.53;5091876;28;20016;-54
2021/12/14 01:28:32;;;;;;;5.80;3.83;;;;;;;2.97;85.32;100145.84;5091425;28;20012;-55
2021/12/14 01:31:08;;;;;;;6.45;3.80;;;;;;;2.85;85.50;100156.53;5091648;28;20023;-54
2021/12/14 01:33:34;;;;;;;6.30;4.20;;;;;;;2.71;86.20;100147.31;5090430;28;20453;-55
2021/12/14 01:36:01;;;;;;;5.82;3.70;;;;;;;2.68;85.48;100141.53;5091925;28;20050;-54
2021/12/14 01:40:57;;;;;;;6.50;4.07;;;;;;;2.45;87.96;100152.34;5090589;28;20028;-55
2021/12/14 01:43:54;;;;;;;4.72;3.28;;;;;;;2.51;86.61;100149.19;5091824;28;20020;-54
2021/12/14 01:46:23;;;;;;;5.93;3.47;;;;;;;2.42;86.83;100143.91;5091360;28;20022;-54
2021/12/14 01:48:49;;;;;;;5.78;3.75;;;;;;;2.46;87.39;100147.94;5091862;28;20047;-54
2021/12/14 01:51:14;;;;;;;4.70;3.50;;;;;;;2.24;87.56;100155.13;5091535;28;20107;-52
2021/12/14 01:53:41;;;;;;;6.95;4.07;;;;;;;2.46;87.08;100154.03;5090020;28;20111;-54
2021/12/14 01:56:09;;;;;;;5.63;3.85;;;;;;;2.63;87.10;100146.41;5091427;28;20020;-52
2021/12/14 01:58:43;;;;;;;6.47;4.47;;;;;;;2.71;85.96;100152.56;5090993;28;20016;-54
2021/12/14 02:01:18;;;;;;;6.88;4.00;;;;;;;2.80;87.32;100148.28;5091714;28;20579;-54
2021/12/14 02:03:56;;;;;;;6.80;3.90;;;;;;;2.82;85.20;100148.09;5091394;28;20107;-54
2021/12/14 02:06:25;;;;;;;8.77;4.40;;;;;;;2.64;86.78;100150.66;5091310;28;20028;-55
2021/12/14 02:09:08;;;;;;;7.83;4.37;;;;;;;2.63;87.03;100147.22;5091284;28;20019;-54
2021/12/14 02:11:35;;;;;;;7.22;3.80;;;;;;;2.67;87.89;100150.38;5091594;28;20031;-54
2021/12/14 02:14:02;;;;;;;6.55;4.18;;;;;;;2.79;85.68;100148.41;5091642;28;20024;-55
2021/12/14 02:16:27;;;;;;;6.70;4.00;;;;;;;2.64;85.34;100146.22;5091508;28;20020;-54
2021/12/14 02:18:56;;;;;;;5.80;3.72;;;;;;;2.73;86.06;100140.13;5091632;28;20459;-54
2021/12/14 02:21:22;;;;;;;5.32;3.53;;;;;;;2.85;86.66;100153.91;5092155;28;20016;-54
2021/12/14 02:23:50;;;;;;;7.25;3.72;;;;;;;2.46;87.16;100148.78;5091318;28;20093;-53
2021/12/14 02:26:18;;;;;;;4.90;3.13;;;;;;;2.45;86.10;100157.59;5091304;28;20118;-55
2021/12/14 02:28:44;;;;;;;5.15;3.30;;;;;;;2.57;86.42;100147.78;5091678;28;20024;-55
2021/12/14 02:31:10;;;;;;;5.03;3.17;;;;;;;2.39;86.22;100160.81;5091233;28;20420;-55
2021/12/14 02:33:37;;;;;;;5.10;2.88;;;;;;;2.38;86.49;100158.31;5091220;28;20024;-54
2021/12/14 02:36:06;;;;;;;4.10;2.90;;;;;;;2.50;87.67;100159.81;5090864;28;20015;-54
2021/12/14 02:38:31;;;;;;;4.35;2.50;;;;;;;2.62;87.61;100161.31;5091015;28;20020;-53
2021/12/14 02:41:02;;;;;;;5.40;3.05;;;;;;;2.44;88.09;100155.16;5091092;28;20035;-54
2021/12/14 02:43:47;;;;;;;4.15;2.63;;;;;;;2.50;86.46;100154.56;5091580;28;20024;-54
2021/12/14 02:46:17;;;;;;;4.18;2.70;;;;;;;2.50;85.48;100159.81;5091277;28;20035;-55
2021/12/14 02:48:46;;;;;;;4.90;3.03;;;;;;;2.48;87.47;100149.44;5091162;28;20068;-54
2021/12/14 02:51:18;;;;;;;3.95;2.90;;;;;;;2.30;87.26;100161.63;5091057;28;20032;-55
2021/12/14 02:53:44;;;;;;;4.03;2.70;;;;;;;2.69;86.15;100159.78;5090813;28;20035;-54
2021/12/14 02:56:12;;;;;;;4.13;3.00;;;;;;;2.61;87.09;100164.94;5091171;28;20120;-55
2021/12/14 02:58:38;;;;;;;5.90;3.20;;;;;;;2.75;86.44;100158.38;5091153;28;20376;-55
2021/12/14 03:01:03;;;;;;;4.40;2.53;;;;;;;2.49;85.19;100156.34;5091198;28;20024;-55
2021/12/14 03:03:28;;;;;;;4.03;2.97;;;;;;;2.47;85.74;100155.66;5090975;28;20505;-54
2021/12/14 03:05:58;;;;;;;4.07;2.70;;;;;;;2.54;85.66;100164.66;5090769;28;20507;-55
2021/12/14 03:08:25;;;;;;;4.75;3.08;;;;;;;2.51;85.32;100154.44;5090477;28;20107;-55
2021/12/14 03:11:09;;;;;;;4.53;2.75;;;;;;;2.49;85.28;100160.78;5090875;28;20105;-40
2021/12/14 03:13:36;;;;;;;4.80;3.10;;;;;;;2.51;86.24;100166.72;5090763;28;20020;-40
2021/12/14 03:16:05;;;;;;;4.75;2.97;;;;;;;2.53;86.05;100159.53;5090897;28;20024;-40
2021/12/14 03:18:33;;;;;;;4.80;3.07;;;;;;;2.49;87.11;100173.91;5089152;28;20430;-40
2021/12/14 03:21:07;;;;;;;4.50;2.97;;;;;;;2.50;86.30;100165.09;5090806;28;20712;-40
2021/12/14 03:23:35;;;;;;;5.25;3.17;;;;;;;2.48;86.39;100167.84;5091008;28;20059;-41
2021/12/14 03:26:02;;;;;;;4.43;2.90;;;;;;;2.56;86.51;100174.19;5090854;28;20526;-42
2021/12/14 03:28:28;;;;;;;4.00;3.00;;;;;;;2.32;85.72;100165.81;5090819;28;20035;-42
2021/12/14 03:31:19;;;;;;;3.72;2.70;;;;;;;2.32;86.67;100170.19;5090749;28;20056;-42
2021/12/14 03:33:48;;;;;;;3.85;2.70;;;;;;;2.32;85.46;100176.31;5090821;28;20042;-41
2021/12/14 03:36:20;;;;;;;4.97;3.10;;;;;;;2.23;86.25;100174.50;5090392;28;20459;-42
2021/12/14 03:39:07;;;;;;;4.00;2.70;;;;;;;2.41;85.86;100177.25;5093808;28;20020;-42
2021/12/14 03:41:38;;;;;;;3.88;2.58;;;;;;;2.26;85.31;100179.47;5094664;28;20070;-43
2021/12/14 03:44:10;;;;;;;4.47;2.95;;;;;;;2.14;86.67;100176.16;5094369;28;20095;-43
2021/12/14 03:46:42;;;;;;;3.13;2.40;;;;;;;2.03;85.38;100176.28;5094572;28;20055;-43
2021/12/14 03:49:08;;;;;;;4.63;2.63;;;;;;;2.33;86.29;100179.75;5094376;28;20028;-44
2021/12/14 03:51:34;;;;;;;4.07;2.67;;;;;;;2.32;85.59;100181.56;5094317;28;20035;-44
2021/12/14 03:53:59;;;;;;;4.05;2.90;;;;;;;2.26;85.95;100174.22;5094776;28;20089;-42
2021/12/14 03:56:25;;;;;;;4.93;2.60;;;;;;;2.25;86.14;100184.88;5094349;28;20056;-43
2021/12/14 03:58:51;;;;;;;4.32;2.90;;;;;;;2.28;85.52;100185.41;5094022;28;20052;-43
2021/12/14 04:01:28;;;;;;;3.67;2.60;;;;;;;2.22;87.21;100187.78;5094409;28;20027;-43
2021/12/14 04:03:58;;;;;;;4.47;2.50;;;;;;;2.18;86.20;100196.91;5094039;28;20044;-42
2021/12/14 04:06:24;;;;;;;4.13;2.78;;;;;;;2.27;86.87;100190.81;5094508;28;20032;-44
2021/12/14 04:08:50;;;;;;;4.13;2.60;;;;;;;2.32;85.73;100191.22;5094276;28;20298;-43
2021/12/14 04:11:15;;;;;;;4.88;2.50;;;;;;;2.34;84.62;100195.38;5094229;28;20019;-44
2021/12/14 04:13:43;;;;;;;3.00;2.38;;;;;;;2.21;85.61;100199.22;5094462;28;20039;-45
2021/12/14 04:16:10;;;;;;;4.78;2.40;;;;;;;2.05;85.79;100202.41;5092673;28;20588;-44
2021/12/14 04:18:36;;;;;;;4.32;2.88;;;;;;;2.07;85.09;100200.47;5093907;28;20028;-45
2021/12/14 04:21:01;;;;;;;3.83;2.60;;;;;;;1.95;86.49;100200.59;5093512;28;20020;-44
2021/12/14 04:23:30;;;;;;;4.30;2.55;;;;;;;1.75;86.52;100202.38;5093643;28;20024;-45
2021/12/14 04:25:56;;;;;;;4.28;2.92;;;;;;;2.10;88.41;100208.09;5093615;28;20024;-43
2021/12/14 04:28:29;;;;;;;4.47;2.80;;;;;;;2.14;87.47;100217.34;5093641;28;20157;-44
2021/12/14 04:30:54;;;;;;;5.80;2.75;;;;;;;2.46;86.13;100214.44;5092997;28;20058;-43
2021/12/14 04:33:29;;;;;;;4.05;2.75;;;;;;;2.38;85.26;100210.84;5093142;28;20198;-44
2021/12/14 04:35:54;;;;;;;3.88;2.58;;;;;;;2.34;85.33;100210.28;5093367;28;20069;-47
2021/12/14 04:38:26;;;;;;;5.55;3.05;;;;;;;2.20;86.66;100208.91;5093082;28;20019;-47
2021/12/14 04:52:00;;;;;;;4.10;3.00;;;;;;;1.82;88.28;100214.97;5093481;28;20439;-48
2021/12/14 04:54:29;;;;;;;3.53;2.60;;;;;;;1.98;87.61;100217.91;5093383;28;20028;-48
2021/12/14 04:56:55;;;;;;;3.88;2.80;;;;;;;2.05;88.30;100220.78;5093604;28;20024;-47
2021/12/14 04:59:23;;;;;;;4.95;3.15;;;;;;;2.10;88.45;100223.84;5093128;28;20081;-49
2021/12/14 05:01:50;;;;;;;4.85;3.10;;;;;;;2.32;86.32;100228.00;5093223;28;20028;-47
2021/12/14 05:04:18;;;;;;;5.50;3.08;;;;;;;2.32;84.39;100217.47;5093291;28;20040;-50
2021/12/14 05:06:53;;;;;;;4.57;3.10;;;;;;;2.17;86.27;100230.22;5093219;28;20032;-48
2021/12/14 05:09:29;;;;;;;4.53;3.00;;;;;;;2.23;87.31;100232.28;5093352;28;20069;-51
2021/12/14 05:12:05;;;;;;;4.80;2.90;;;;;;;2.38;86.17;100229.22;5093115;28;20050;-50
2021/12/14 05:14:31;;;;;;;4.15;2.95;;;;;;;2.34;84.27;100234.78;5093292;28;20471;-50
2021/12/14 05:16:58;;;;;;;5.88;3.47;;;;;;;4.24;100.00;100238.09;5093229;28;20035;-52
2021/12/14 05:19:25;;;;;;;5.18;3.10;;;;;;;3.32;82.60;100229.34;5092972;28;20020;-51
2021/12/14 05:21:51;;;;;;;4.22;2.88;;;;;;;2.78;83.42;100236.13;5092961;28;20024;-52
2021/12/14 05:24:19;;;;;;;5.32;3.90;;;;;;;2.47;84.12;100242.38;5093215;28;20020;-53
2021/12/14 05:26:45;;;;;;;5.60;3.60;;;;;;;2.14;84.36;100235.72;5092774;28;20024;-54
2021/12/14 05:29:10;;;;;;;6.32;3.60;;;;;;;2.27;85.65;100249.44;5091607;28;20034;-54
2021/12/14 05:31:44;;;;;;;18.50;9.63;;;;;;;2.17;85.84;100242.50;5092984;28;20095;-55
2021/12/14 05:34:09;;;;;;;16.10;8.18;;;;;;;1.99;86.29;100251.03;5092553;28;20468;-55
2021/12/14 05:36:35;;;;;;;8.05;4.32;;;;;;;2.06;85.60;100246.91;5091168;28;20066;-55
2021/12/14 05:39:18;;;;;;;6.05;3.80;;;;;;;1.73;85.98;100259.44;5092173;28;20031;-56
2021/12/14 05:44:18;;;;;;;41.42;17.67;;;;;;;2.19;85.91;100265.06;5092466;28;20058;-57
2021/12/14 05:46:50;;;;;;;11.18;5.47;;;;;;;2.04;85.55;100259.34;5091867;28;20506;-58
2021/12/14 05:49:16;;;;;;;8.75;3.80;;;;;;;2.92;89.00;100265.44;5091849;28;20329;-58
2021/12/14 05:51:41;;;;;;;7.97;4.25;;;;;;;2.70;83.65;100269.22;5091853;28;20113;-57
2021/12/14 05:54:07;;;;;;;7.25;4.13;;;;;;;2.33;83.95;100269.88;5091391;28;20035;-57
2021/12/14 05:56:32;;;;;;;9.07;4.32;;;;;;;2.28;86.01;100268.63;5091456;28;20020;-58
2021/12/14 05:58:58;;;;;;;9.40;4.85;;;;;;;3.21;88.28;100264.53;5084197;28;20036;-57
2021/12/14 06:01:26;;;;;;;7.55;4.63;;;;;;;2.93;84.53;100269.72;5091153;28;20357;-56
2021/12/14 06:03:56;;;;;;;9.30;5.20;;;;;;;2.44;84.50;100271.56;5091450;28;20534;-56
2021/12/14 06:06:32;;;;;;;10.85;5.30;;;;;;;2.29;83.63;100272.94;5091869;28;20128;-56
2021/12/14 06:09:23;;;;;;;9.18;4.53;;;;;;;2.37;84.25;100275.69;5092064;28;20090;-57
2021/12/14 06:11:49;;;;;;;6.60;3.90;;;;;;;2.94;92.61;100279.25;5092095;28;20093;-57
2021/12/14 06:14:20;;;;;;;5.85;3.70;;;;;;;7.80;100.00;100281.81;5091970;28;20111;-57
2021/12/14 06:16:46;;;;;;;8.75;4.70;;;;;;;5.97;72.91;100276.97;5091828;28;20039;-56
2021/12/14 06:19:27;;;;;;;7.68;4.40;;;;;;;4.58;75.45;100275.13;5092062;28;20028;-50
2021/12/14 06:22:05;;;;;;;7.60;4.50;;;;;;;4.52;84.04;100278.38;5090860;28;20024;-47
2021/12/14 06:24:32;;;;;;;6.60;4.25;;;;;;;4.17;80.13;100271.28;5090268;28;20048;-47
2021/12/14 06:26:59;;;;;;;12.18;5.22;;;;;;;4.87;88.04;100279.31;5091084;28;20400;-49
2021/12/14 06:29:31;;;;;;;6.90;3.88;;;;;;;4.90;77.35;100273.75;5090920;28;20030;-47
2021/12/14 06:31:58;;;;;;;6.35;4.30;;;;;;;5.27;76.79;100280.56;5090780;28;20055;-46
2021/12/14 06:34:27;;;;;;;7.57;5.00;;;;;;;5.12;78.86;100282.13;5090837;28;20020;-47
2021/12/14 06:37:19;;;;;;;13.27;7.43;;;;;;;5.16;77.22;100286.97;5090360;28;20051;-47
2021/12/14 06:40:00;;;;;;;8.30;4.72;;;;;;;4.97;72.68;100279.22;5091022;28;20448;-48
2021/12/14 06:42:26;;;;;;;10.65;5.82;;;;;;;4.25;75.99;100282.75;5090649;28;20021;-47
2021/12/14 06:45:22;;;;;;;6.18;4.15;;;;;;;3.51;77.28;100279.25;5091004;28;20055;-49
2021/12/14 06:47:49;;;;;;;7.57;4.18;;;;;;;2.65;80.60;100294.25;5089768;28;20052;-49
2021/12/14 06:50:24;;;;;;;7.93;4.38;;;;;;;2.53;82.35;100294.38;5090576;28;20020;-48
2021/12/14 06:53:01;;;;;;;6.93;4.13;;;;;;;2.20;83.57;100290.31;5089399;28;20103;-50
2021/12/14 06:55:26;;;;;;;9.23;4.55;;;;;;;2.19;85.06;100293.94;5090550;28;20028;-54
2021/12/14 06:57:52;;;;;;;8.85;5.05;;;;;;;2.55;84.32;100296.84;5090223;28;20032;-47
2021/12/14 07:00:17;;;;;;;6.75;4.25;;;;;;;2.36;83.46;100297.66;5089343;28;20112;-47
2021/12/14 07:02:48;;;;;;;8.52;5.13;;;;;;;2.25;83.50;100303.88;5075988;28;20036;-46
2021/12/14 07:05:32;;;;;;;9.07;5.00;;;;;;;1.99;85.30;100297.47;5068621;28;20130;-48
2021/12/14 07:07:58;;;;;;;7.45;4.47;;;;;;;1.84;85.38;100300.47;5070042;28;20024;-48
2021/12/14 07:10:24;;;;;;;6.68;4.10;;;;;;;1.72;85.62;100293.66;5069408;28;20028;-49
2021/12/14 07:12:51;;;;;;;7.07;4.10;;;;;;;1.74;85.83;100286.50;5069746;28;20035;-49
2021/12/14 07:15:21;;;;;;;9.82;4.38;;;;;;;1.72;86.78;100296.28;5069863;28;20111;-48
2021/12/14 07:17:53;;;;;;;8.48;4.10;;;;;;;1.67;86.90;100295.84;5069961;28;20032;-49
2021/12/14 07:20:38;;;;;;;10.15;5.20;;;;;;;1.84;85.56;100297.84;5069370;28;20028;-46
2021/12/14 07:23:25;;;;;;;9.85;5.18;;;;;;;1.94;86.10;100296.09;5068837;28;20028;-48
2021/12/14 07:26:11;;;;;;;7.45;4.00;;;;;;;1.93;84.83;100302.28;5068841;28;20029;-47
2021/12/14 07:28:42;;;;;;;9.05;4.25;;;;;;;1.93;86.33;100301.47;5067895;28;20511;-48
2021/12/14 07:31:16;;;;;;;9.55;4.15;;;;;;;2.12;84.85;100303.31;5068742;28;20032;-50
2021/12/14 07:33:55;;;;;;;5.68;3.45;;;;;;;2.08;84.27;100301.94;5068773;28;20064;-48
2021/12/14 07:36:31;;;;;;;5.30;3.45;;;;;;;1.88;83.93;100306.28;5068870;28;20028;-47
2021/12/14 07:39:00;;;;;;;8.77;4.30;;;;;;;2.20;83.88;100311.34;5069171;28;20158;-48
2021/12/14 07:41:33;;;;;;;6.30;3.92;;;;;;;2.25;82.87;100308.31;5068983;28;20032;-46
2021/12/14 07:44:12;;;;;;;9.80;5.00;;;;;;;2.22;84.05;100319.09;5069136;28;20405;-50
2021/12/14 07:46:48;;;;;;;7.38;4.13;;;;;;;2.15;83.45;100318.78;5068804;28;20036;-48
2021/12/14 07:49:24;;;;;;;5.75;3.95;;;;;;;1.86;85.33;100314.28;5086702;28;20072;-49
2021/12/14 07:51:52;;;;;;;8.77;4.47;;;;;;;1.90;83.98;100320.09;5089077;28;20032;-47
2021/12/14 07:54:24;;;;;;;6.93;4.13;;;;;;;2.13;82.82;100315.47;5089245;28;20028;-47
2021/12/14 07:57:01;;;;;;;7.45;4.70;;;;;;;2.06;82.90;100317.81;5088998;28;20059;-50
2021/12/14 07:59:28;;;;;;;8.70;4.57;;;;;;;2.09;82.99;100324.56;5088035;28;20023;-47
2021/12/14 08:02:13;;;;;;;7.00;3.97;;;;;;;2.38;82.02;100326.44;5086110;28;20039;-49
2021/12/14 08:04:39;;;;;;;7.97;4.03;;;;;;;2.05;82.86;100331.06;5088824;28;20040;-50
2021/12/14 08:07:05;;;;;;;7.43;4.60;;;;;;;2.04;83.40;100327.63;5088968;28;20036;-47
2021/12/14 08:09:49;;;;;;;7.20;4.30;;;;;;;2.44;82.03;100337.25;5089431;28;20182;-49
2021/12/14 08:12:37;;;;;;;13.60;7.70;;;;;;;2.57;81.63;100344.00;5090710;28;20051;-49
2021/12/14 08:15:11;;;;;;;37.70;18.02;;;;;;;2.59;81.32;100332.41;5090058;28;20391;-49
2021/12/14 08:17:38;;;;;;;9.85;5.00;;;;;;;2.80;80.64;100328.81;5089916;28;20024;-51
2021/12/14 08:20:06;;;;;;;8.05;4.63;;;;;;;2.48;82.82;100333.38;5090100;28;20050;-50
2021/12/14 08:22:33;;;;;;;9.82;5.28;;;;;;;2.44;83.16;100329.34;5091165;28;20459;-48
2021/12/14 08:24:59;;;;;;;9.02;5.13;;;;;;;2.91;81.31;100340.03;5093249;28;20039;-47
2021/12/14 08:27:26;;;;;;;9.25;5.35;;;;;;;2.81;80.99;100338.38;5093629;28;20024;-48
2021/12/14 08:29:53;;;;;;;10.52;5.45;;;;;;;2.38;80.59;100342.19;5093134;28;20109;-47
2021/12/14 08:32:23;;;;;;;9.60;5.03;;;;;;;2.37;81.19;100338.75;5091955;28;20585;-47
2021/12/14 08:34:50;;;;;;;9.02;5.45;;;;;;;2.75;79.69;100350.25;5093082;28;20043;-47
2021/12/14 08:37:37;;;;;;;9.30;5.55;;;;;;;2.84;79.61;100346.81;5092823;28;20036;-51
2021/12/14 08:40:05;;;;;;;8.73;5.75;;;;;;;2.90;79.24;100350.69;5092952;28;20459;-48
2021/12/14 08:42:42;;;;;;;11.48;5.47;;;;;;;2.56;81.24;100348.44;5092844;28;20028;-48
2021/12/14 08:45:34;;;;;;;7.72;5.07;;;;;;;2.10;82.78;100339.38;5091538;28;20062;-50
2021/12/14 08:48:02;;;;;;;8.77;5.03;;;;;;;2.05;83.00;100344.19;5081372;28;20044;-56
2021/12/14 08:50:32;;;;;;;8.75;4.70;;;;;;;2.59;81.29;100336.81;5092471;28;20032;-50
2021/12/14 08:52:58;;;;;;;8.02;4.68;;;;;;;2.48;81.78;100336.00;5092413;28;20030;-49
2021/12/14 08:55:24;;;;;;;9.05;5.28;;;;;;;2.30;82.33;100325.34;5092400;28;20680;-51
2021/12/14 08:57:50;;;;;;;7.65;4.75;;;;;;;2.77;80.65;100336.97;5092174;28;20120;-50
2021/12/14 09:00:22;;;;;;;6.97;5.00;;;;;;;3.05;79.17;100330.06;5092109;28;20024;-51
2021/12/14 09:02:52;;;;;;;7.97;4.88;;;;;;;2.76;79.38;100330.06;5092031;28;20100;-51
2021/12/14 09:05:22;;;;;;;8.27;4.82;;;;;;;2.56;81.24;100329.22;5092092;28;20044;-51
2021/12/14 09:07:47;;;;;;;7.25;5.20;;;;;;;2.54;80.57;100329.38;5092563;28;20040;-51
2021/12/14 09:10:18;;;;;;;8.73;5.07;;;;;;;2.59;81.28;100324.53;5092467;28;20399;-52
2021/12/14 09:12:45;;;;;;;18.30;9.10;;;;;;;2.72;80.66;100322.47;5090557;28;20028;-53
2021/12/14 09:15:23;;;;;;;29.67;15.50;;;;;;;2.50;80.56;100322.72;5092477;28;20020;-53
2021/12/14 09:17:48;;;;;;;8.13;5.45;;;;;;;2.33;81.91;100322.41;5092466;28;20036;-52
2021/12/14 09:20:21;;;;;;;9.32;5.53;;;;;;;2.57;81.02;100315.09;5092464;28;20077;-52
2021/12/14 09:22:50;;;;;;;8.77;5.75;;;;;;;2.52;81.70;100312.91;5092272;28;20046;-52
2021/12/14 09:25:18;;;;;;;10.40;5.30;;;;;;;2.53;79.88;100301.41;5092695;28;20024;-54
2021/12/14 09:27:44;;;;;;;8.63;5.35;;;;;;;2.80;79.80;100313.03;5092229;28;20574;-52
2021/12/14 09:30:11;;;;;;;9.68;5.75;;;;;;;2.61;80.53;100313.84;5092213;28;20056;-53
2021/12/14 09:32:37;;;;;;;9.93;5.35;;;;;;;2.54;82.74;100306.53;5090736;28;20054;-51
2021/12/14 09:35:05;;;;;;;10.35;5.88;;;;;;;2.74;84.03;100306.53;5091521;28;20081;-51
2021/12/14 09:37:32;;;;;;;10.13;6.22;;;;;;;2.84;82.59;100307.38;5090595;28;20077;-51
2021/12/14 09:40:00;;;;;;;15.93;6.38;;;;;;;3.23;81.63;100301.22;5092000;28;20020;-52
2021/12/14 09:42:31;;;;;;;8.95;5.78;;;;;;;3.42;80.79;100301.16;5091993;28;20035;-52
2021/12/14 09:44:59;;;;;;;9.05;5.55;;;;;;;3.06;84.28;100293.06;5091893;28;20081;-51
2021/12/14 09:47:31;;;;;;;9.18;4.97;;;;;;;2.80;84.16;100290.22;5091843;28;20109;-51
2021/12/14 09:49:59;;;;;;;10.10;4.53;;;;;;;2.67;84.39;100290.50;5092228;28;20028;-51
2021/12/14 09:52:35;;;;;;;7.32;4.85;;;;;;;2.66;84.42;100296.72;5092037;28;20020;-51
2021/12/14 09:55:02;;;;;;;10.07;4.75;;;;;;;2.35;86.34;100283.72;5085072;28;20028;-51
2021/12/14 09:57:39;;;;;;;8.65;5.18;;;;;;;2.64;85.55;100287.31;5071804;28;20120;-52
2021/12/14 10:00:29;;;;;;;9.30;5.47;;;;;;;2.84;85.40;100283.72;5070928;28;20036;-51
2021/12/14 10:02:55;;;;;;;6.88;5.10;;;;;;;2.67;85.60;100289.69;5087816;28;20035;-51
2021/12/14 10:05:37;;;;;;;9.98;5.40;;;;;;;2.70;85.34;100281.50;5090189;28;20052;-50
2021/12/14 10:08:13;;;;;;;7.68;5.15;;;;;;;2.60;86.33;100284.13;5091460;28;20100;-51
2021/12/14 10:10:40;;;;;;;8.95;5.43;;;;;;;2.79;87.06;100274.59;5090792;28;20032;-52
2021/12/14 10:13:05;;;;;;;7.47;4.70;;;;;;;2.39;87.68;100276.38;5073738;28;20028;-51
2021/12/14 10:15:33;;;;;;;8.27;5.40;;;;;;;2.49;85.60;100276.38;5089522;28;20051;-52
2021/12/14 10:18:20;;;;;;;8.07;5.15;;;;;;;2.64;86.28;100267.13;5091360;28;20054;-52
2021/12/14 10:21:02;;;;;;;7.28;4.88;;;;;;;2.56;89.73;100280.13;5091265;28;20058;-56
2021/12/14 10:23:28;;;;;;;8.63;4.72;;;;;;;2.71;85.73;100277.91;5091335;28;20106;-52
2021/12/14 10:25:54;;;;;;;55.08;22.30;;;;;;;2.74;86.36;100275.00;5090164;28;20404;-53
2021/12/14 10:28:20;;;;;;;11.60;6.43;;;;;;;2.59;85.83;100274.59;5088868;28;20341;-52
2021/12/14 10:30:59;;;;;;;10.07;5.72;;;;;;;2.65;85.72;100276.66;5090082;28;20055;-53
2021/12/14 10:33:25;;;;;;;11.85;6.88;;;;;;;2.62;88.19;100279.56;5090669;28;20035;-52
2021/12/14 10:35:55;;;;;;;11.13;6.95;;;;;;;2.45;87.40;100261.88;5090438;28;20032;-52
2021/12/14 10:38:29;;;;;;;11.98;7.10;;;;;;;2.53;88.09;100275.13;5090763;28;20031;-54
2021/12/14 10:43:53;;;;;;;9.48;6.10;;;;;;;2.70;87.24;100266.59;5089116;28;20141;-54
2021/12/14 10:46:47;;;;;;;9.05;5.75;;;;;;;2.72;88.31;100269.91;5087325;28;20031;-53
2021/12/14 10:49:13;;;;;;;9.98;6.07;;;;;;;2.54;86.62;100261.03;5086177;28;20505;-51
2021/12/14 10:51:40;;;;;;;9.20;6.03;;;;;;;2.35;89.10;100264.50;5089011;28;20084;-53
2021/12/14 10:54:09;;;;;;;9.38;5.25;;;;;;;2.23;87.58;100242.78;5090900;28;20559;-54
2021/12/14 10:56:55;;;;;;;9.18;5.32;;;;;;;2.44;88.38;100265.47;5087802;28;20059;-54
2021/12/14 10:59:23;;;;;;;8.90;5.85;;;;;;;2.82;87.05;100258.50;5086106;28;20028;-51
2021/12/14 11:01:50;;;;;;;9.80;5.55;;;;;;;2.65;86.68;100253.03;5090411;28;20032;-50
2021/12/14 11:04:26;;;;;;;11.27;7.03;;;;;;;2.87;87.89;100264.19;5083877;28;20060;-50
2021/12/14 11:06:52;;;;;;;9.73;6.40;;;;;;;2.87;88.39;100241.34;5090359;28;20035;-52
2021/12/14 11:09:53;;;;;;;8.75;5.72;;;;;;;2.91;88.64;100255.91;5090418;28;20783;-54
2021/12/14 11:12:21;;;;;;;9.93;6.38;;;;;;;3.01;89.25;100255.03;5090421;28;20080;-51
2021/12/14 11:14:48;;;;;;;10.10;5.95;;;;;;;3.17;86.34;100252.63;5089890;28;20028;-55
2021/12/14 11:20:26;;;;;;;7.72;5.15;;;;;;;3.03;86.18;100258.38;5089623;28;20030;-50
2021/12/14 11:23:08;;;;;;;9.70;5.45;;;;;;;2.79;86.55;100250.94;5088069;28;20487;-49
2021/12/14 11:25:41;;;;;;;7.60;5.40;;;;;;;2.93;87.15;100245.22;5089915;28;20110;-55
2021/12/14 11:28:10;;;;;;;17.50;8.82;;;;;;;2.98;88.16;100245.63;5071799;28;20376;-56
2021/12/14 11:30:55;;;;;;;;;;;;;;;3.21;87.42;100243.47;5090365;28;20048;-56
2021/12/14 11:33:22;;;;;;;10.65;6.45;;;;;;;3.15;86.68;100251.13;5090216;28;19908;-46
2021/12/14 11:35:54;;;;;;;9.75;5.97;;;;;;;3.18;86.12;100237.69;5090063;28;20051;-47
2021/12/14 11:38:28;;;;;;;12.85;5.72;;;;;;;2.88;86.97;100210.66;5071764;28;20031;-48
2021/12/14 11:40:54;;;;;;;8.38;5.72;;;;;;;2.96;88.06;100250.19;5089913;28;20032;-56
2021/12/14 11:43:23;;;;;;;9.23;6.00;;;;;;;3.00;86.90;100248.94;5089824;28;20035;-42
2021/12/14 11:45:48;;;;;;;8.00;5.60;;;;;;;2.99;86.28;100251.72;5089923;28;20035;-55
2021/12/14 11:48:15;;;;;;;8.20;5.45;;;;;;;3.02;86.29;100248.81;5089830;28;20546;-56
2021/12/14 11:50:44;;;;;;;8.77;5.50;;;;;;;3.11;86.57;100243.50;5089793;28;20048;-58
2021/12/14 11:53:11;;;;;;;8.02;5.63;;;;;;;3.26;87.51;100237.81;5089355;28;20032;-57
2021/12/14 11:55:50;;;;;;;9.80;5.97;;;;;;;3.39;87.44;100240.09;5089105;28;20031;-55
2021/12/14 11:58:37;;;;;;;8.88;6.30;;;;;;;3.23;86.51;100240.72;5092204;28;20672;-41
2021/12/14 12:01:02;;;;;;;9.18;5.45;;;;;;;3.17;86.37;100249.19;5093890;28;20086;-43
2021/12/14 12:03:41;;;;;;;12.15;5.85;;;;;;;3.07;88.08;100239.53;5093788;28;20500;-42
2021/12/14 12:09:35;;;;;;;8.18;5.65;;;;;;;3.75;87.41;100243.69;5092945;28;20180;-40
2021/12/14 12:12:03;;;;;;;7.75;5.07;;;;;;;3.32;86.59;100245.13;5093984;28;20130;-41
2021/12/14 12:14:37;;;;;;;7.63;5.25;;;;;;;3.45;86.59;100240.34;5093962;28;20462;-41
2021/12/14 12:17:27;;;;;;;9.13;5.15;;;;;;;3.47;86.50;100243.66;5094260;28;20032;-40
2021/12/14 12:20:16;;;;;;;9.50;5.75;;;;;;;3.55;85.60;100240.31;5094484;28;20376;-41
2021/12/14 12:22:43;;;;;;;7.78;5.13;;;;;;;3.60;87.41;100242.50;5092647;28;20110;-56